空港情報

日本の空港の気象及び、管制情報です。
気象情報はより詳細な情報が取得できる「AVIATION WEATER CENTER」 から取得しているため、VATSIMの気象情報と若干のタイムラグが生じることがあります。

VRCのフィールド設定用空港一覧はこちらをご覧ください。

RJCG Sapporo Control

RJCW / Wakkanai

NO RADAR

RADIO

08/26 2200x45

民間 civil

過去5時間に発表されたMETARがありません。

RJER / Rishiri

NO RADAR

REMOTE

25/07 1800x45

民間 civil

過去5時間に発表されたMETARがありません。

RJEB / Monbetsu

NO RADAR

REMOTE

32/14 2000x45

民間 civil

過去5時間に発表されたMETARがありません。

RJCM / Memanbetsu

NO RADAR

TOWER

36/18 2500x45

民間 civil

過去5時間に発表されたMETARがありません。

RJEC / Asahikawa
VMC

NO RADAR

TOWER

34/16 2500x60

民間 civil

8000

350@3KT

30.38

RJEC 252200Z 35003KT 8000 R34/0700VP2000U -SHSN FEW003 BKN010 BKN020 M14/M18 Q1029

RJCN / Nakashibetsu

NO RADAR

RADIO

08/26 2000x45

民間 civil

過去5時間に発表されたMETARがありません。

RJCK / Kushiro
VMC

NO RADAR

TOWER

17/35 2500x45

民間 civil

9999

060@2KT

30.44

RJCK 252200Z 06002KT 9999 FEW020 BKN030 M11/M16 Q1031

RJCO / Sapporo
VMC

RJCO_APP

TOWER

14/32 1500x30

共用 dual

9999

110@10KT

30.41

RJCO 252200Z 11010KT 9999 FEW010 SCT040 M11/M14 Q1030

RJCJ / Chitose

RJCC_APP

TOWER

36R/18L 3000x60
36L/18R 2700x45

自衛隊 military

過去5時間に発表されたMETARがありません。

RJCC / NewChitose
VMC

RJCC_APP

TOWER

01L/19R 3000x60
01R/19L 3000x60

民間 civil

9999

360@3KT

30.38

RJCC 252200Z 36003KT 9999 FEW010 BKN014 M08/M10 Q1029

RJCB / Obihiro

NO RADAR

TOWER

35/17 2500x45

民間 civil

過去5時間に発表されたMETARがありません。

RJEO / Okushiri

NO RADAR

REMOTE

12/30 1500x45

民間 civil

過去5時間に発表されたMETARがありません。

RJCH / Hakodate
VMC

RJCH_APP

TOWER

12/30 3000x45

民間 civil

9999

360@3KT

30.32

RJCH 252200Z 36003KT 310V040 9999 FEW020 SCT040 BKN/// 01/M03 Q1027

RJSA / Aomori
VMC

NO RADAR

TOWER

24/06 3000x60

民間 civil

9999

220@5KT

30.30

RJSA 252200Z 22005KT 9999 FEW030 M06/M07 Q1026

RJSO / Ominato

RJSM_APP

TOWER

04/22 600x45

自衛隊 military

過去5時間に発表されたMETARがありません。

RJSM / Misawa
VMC

RJSM_APP

TOWER

10/28 3050x45

共用 dual

9999

200@4KT

30.35

RJSM 252200Z 20004KT 9999 FEW008 BKN015 M02/M04 Q1028

RJSH / Hachinohe

RJSM_APP

TOWER

25/07 2250x45

自衛隊 military

過去5時間に発表されたMETARがありません。

RJSK / Akita
VMC

NO RADAR

TOWER

10/28 2500x60

民間 civil

9999

120@6KT

30.30

RJSK 252200Z 12006KT CAVOK M04/M05 Q1026

RJSI / Hanamaki

NO RADAR

RADIO

20/02 2500x45

民間 civil

過去5時間に発表されたMETARがありません。

RJSR / Odate-Noshiro

NO RADAR

REMOTE

11/29 2000x45

民間 civil

過去5時間に発表されたMETARがありません。

RJTG Tokyo Control

RJSY / Shonai
VMC

NO RADAR

RADIO

09/27 2000x45

民間 civil

9999

120@6KT

30.27

RJSY 252200Z 12006KT 9999 FEW020 BKN/// M01/M04 Q1025

RJSC / Yamagata

NO RADAR

RADIO

01/19 2000x45

民間 civil

過去5時間に発表されたMETARがありません。

RJST / Matsushima

RJSS_APP

TOWER

07/25 2071x46
15/33 1500x46

自衛隊 military

過去5時間に発表されたMETARがありません。

RJSS / Sendai
VMC

RJSS_APP

TOWER

27/09 3000x45
12/30 1200x45

民間 civil

9999

240@4KT

30.35

RJSS 252200Z 24004KT 9999 FEW020 SCT030 BKN040 M00/M02 Q1028

RJSD / Sado

NO RADAR

REMOTE

10/28 890x25

民間 civil

過去5時間に発表されたMETARがありません。

RJSN / Niigata
VMC

RJSN_APP

TOWER

10/28 2500x45
04/22 1314x45

民間 civil

9999

200@3KT

30.27

RJSN 252200Z 20003KT 9999 FEW030 BKN/// M01/M02 Q1025

RJSF / Fukushima
VMC

NO RADAR

RADIO

01/19 2500x60

民間 civil

9999

000@1KT

30.30

RJSF 252200Z VRB01KT 9999 VCFG FEW001 M04/M04 Q1026

RJAH / Ibaraki/Hyakuri
VMC

RJAH_APP

TOWER

03L/21R 2700x45
03R/21L 2700x45

共用 dual

9999

010@3KT

30.30

RJAH 252200Z 01003KT 9999 FEW040 M00/M02 Q1026

RJTT / Tokyo
VMC

RJTT_APP

TOWER

34LR/16RL 3000x60
04/22&05/23 2500x60

民間 civil

9999

340@7KT

30.30

RJTT 252200Z 34007KT 9999 FEW030 05/02 Q1026 NOSIG

RJAA / Narita
VMC

RJTT_APP

TOWER

34L/16R 4000x60
34R/16L 2500x60

民間 civil

7000

320@5KT

30.30

RJAA 252200Z 32005KT 7000 FEW030 SCT050 00/M00 Q1026 NOSIG

RJTL / Shimofusa

RJTT_APP

TOWER

19/01 2250x45

自衛隊 military

過去5時間に発表されたMETARがありません。

RJTE / Tateyama

RJTT_APP

TOWER

09/27 300x45

自衛隊 military

過去5時間に発表されたMETARがありません。

RJTO / Oshima

NO RADAR

RADIO

03/21 1800x45

民間 civil

過去5時間に発表されたMETARがありません。

RJTK / Kisarazu

NO RADAR

TOWER

02/20 1830x45

自衛隊 military

過去5時間に発表されたMETARがありません。

RJAN / Niijima

NO RADAR

REMOTE

11/29 800x25

自衛隊 military

過去5時間に発表されたMETARがありません。

RJAZ / Kozushima

NO RADAR

REMOTE

11/29 800x25

民間 civil

過去5時間に発表されたMETARがありません。

RJTH / Hachijojima

NO RADAR

RADIO

26/08 2000x45

民間 civil

過去5時間に発表されたMETARがありません。

RJTF / Chofu

NO RADAR

Flight Service

35/17 800x30

民間 civil

過去5時間に発表されたMETARがありません。

RJTQ / Miyake

NO RADAR

REMOTE

02/20 1200x30

民間 civil

過去5時間に発表されたMETARがありません。

RJTC / Tachikawa

NO RADAR

TOWER

01/19 900x45

自衛隊 military

過去5時間に発表されたMETARがありません。

RJTA / Atsugi

NO RADAR

TOWER

01/19 2438x45

自衛隊 military

過去5時間に発表されたMETARがありません。

RJTU / Utsunomiya

RJTY_APP

TOWER

01/19 1700x45

自衛隊 military

過去5時間に発表されたMETARがありません。

RJTJ / Iruma

RJTY_APP

TOWER

17/35 2000x45

自衛隊 military

過去5時間に発表されたMETARがありません。

RJTY / Yokota
VMC

RJTY_APP

TOWER

18/36 3353x60

自衛隊 military

9999

000@0KT

30.37

RJTY 252156Z AUTO 00000KT 10SM FEW060 01/M02 A3037 RMK AO2 SLP295 T00081023 FZRANO $

RJAF / Matsumoto

NO RADAR

RADIO

18/36 2000x45

民間 civil

過去5時間に発表されたMETARがありません。

RJNS / Shizuoka

NO RADAR

RADIO

30/12 2500x60

民間 civil

過去5時間に発表されたMETARがありません。

RJNY / Yaizu-Shizuhama

NO RADAR

TOWER

27/09 1500x45

自衛隊 military

過去5時間に発表されたMETARがありません。

RJNH / Hamamatsu

RJNH_APP

TOWER

09/27 2550x60

自衛隊 military

過去5時間に発表されたMETARがありません。

RJGG / Chubu
VMC

RJGG_APP

TOWER

36/18 3500x60

民間 civil

9999

010@8KT

30.27

RJGG 252200Z 01008KT 9999 FEW030 SCT/// 04/03 Q1025 NOSIG

RJNA / Nagoya

RJGG_APP

TOWER

34/16 2740x45

民間 civil

過去5時間に発表されたMETARがありません。

RJNG / Gifu
VMC

RJGG_APP

TOWER

28/10 2710x46

自衛隊 military

9999

000@1KT

30.27

RJNG 251743Z VRB01KT 9999 FEW030 BKN045 03/02 Q1025 RMK 1CU030 5SC045 A3029

RJOE / Akeno

RJOE_APP

TOWER

13/31 500x30
04/22 500x30

自衛隊 military

過去5時間に発表されたMETARがありません。

RJNK / Komatsu
VMC

RJNK_APP

TOWER

06/24 2700x45

共用 dual

9999

190@3KT

30.21

RJNK 252200Z 19003KT 9999 FEW030 SCT250 M00/M01 Q1023

RJNW / Noto

NO RADAR

RADIO

25/07 2000x45

民間 civil

過去5時間に発表されたMETARがありません。

RJNT / Toyama
VMC

NO RADAR

TOWER

20/02 2000x45

民間 civil

9999

000@1KT

30.21

RJNT 252200Z VRB01KT 9999 FEW030 BKN/// M00/M01 Q1023

RJNF / Fukui

NO RADAR

REMOTE

18/36 1200x30

民間 civil

過去5時間に発表されたMETARがありません。

RJBD / Nanki-Shirahama

NO RADAR

RADIO

15/33 2000x45

民間 civil

過去5時間に発表されたMETARがありません。

RJOY / Yao

RJBB_APP

TOWER

27/09 1490x45
13/31 1200x30

民間 civil

過去5時間に発表されたMETARがありません。

RJOO / Osaka
VMC

RJBB_APP

TOWER

32L/14R 3000x60
32R/14L 1830x45

民間 civil

9999

060@7KT

30.21

RJOO 252200Z 06007KT 9999 FEW030 SCT070 BKN/// 08/05 Q1023

RJOB / Okayama
VMC

RJBB_APP

TOWER

07/25 3000x45

民間 civil

9999

000@1KT

30.15

RJOB 252200Z VRB01KT 9999 FEW025 SCT/// 03/01 Q1021

RJBB / Kansai
VMC

RJBB_APP

TOWER

06R/24L 3500x60
06L/24R 4000x60

民間 civil

9999

080@6KT

30.18

RJBB 252200Z 08006KT 9999 FEW030 BKN/// 06/05 Q1022 NOSIG

RJBE / Kobe
VMC

RJBB_APP

TOWER

09/27 2500x60

民間 civil

9999

050@12KT

30.18

RJBE 252200Z 05012KT CAVOK 09/04 Q1022

RJBT / Tajima

NO RADAR

REMOTE

01/19 1200x30

民間 civil

過去5時間に発表されたMETARがありません。

RJOR / Tottori
VMC

NO RADAR

RADIO

10/28 2000x45

民間 civil

9999

170@5KT

30.15

RJOR 252200Z 17005KT 9999 FEW040 BKN/// 03/02 Q1021

RJNO / Oki

NO RADAR

REMOTE

07/25 2000x45

民間 civil

過去5時間に発表されたMETARがありません。

RJOH / Miho
VMC

RJOH_APP

TOWER

25/07 2500x45

共用 dual

9999

000@1KT

30.12

RJOH 252200Z VRB01KT 9999 FEW030 SCT170 BKN/// 04/02 Q1020

RJOC / Izumo
VMC

RJOH_APP

RADIO

07/25 2000x45

共用 dual

9999

140@5KT

30.12

RJOC 252200Z 14005KT 9999 FEW040 BKN/// 01/00 Q1020

RJDG Fukuoka Control

RJOT / Takamatsu
VMC

RJBB_APP

TOWER

26/08 2500x60

民間 civil

7000

140@5KT

30.15

RJOT 252200Z 14005KT 7000 FEW002 SCT005 BKN/// 03/03 Q1021

RJOK / Kochi
VMC

RJBB_APP

TOWER

32/14 2500x45

民間 civil

9999

320@9KT

30.18

RJOK 252200Z 32009KT 9999 FEW025 SCT050 BKN160 07/06 Q1022

RJOS / Tokushima
VMC

RJOS_APP

TOWER

29/11 2500x45

共用 dual

9999

320@4KT

30.18

RJOS 252200Z 32004KT 9999 FEW030 BKN180 04/03 Q1022

RJOA / Hiroshima
VMC

RJOA_APP

TOWER

10/28 3000x60

民間 civil

9999

060@8KT

30.15

RJOA 252200Z 06008KT 9999 FEW040 SCT/// 04/03 Q1021

RJBH / Hiroshimanishi

NO RADAR

Flight Service

04/22 1800x45

民間 civil

過去5時間に発表されたMETARがありません。

RJOI / Iwakuni

RJOI_APP

TOWER

02/20 2440x60

共用 dual

過去5時間に発表されたMETARがありません。

RJOM / Matsuyama
VMC

RJOI_APP

TOWER

14/32 2500x45

民間 civil

9999

120@4KT

30.15

RJOM 252200Z 12004KT 080V150 9999 FEW025 SCT/// 04/03 Q1021

RJOZ / Ozuki

RJFZ_APP

TOWER

35/17 1201x61
12/30 899x46

自衛隊 military

過去5時間に発表されたMETARがありません。

RJOF / Hofu

RJFZ_APP

TOWER

30/12 1180x60
01/19 1480x45

自衛隊 military

過去5時間に発表されたMETARがありません。

RJDC / Yamaguchi-Ube
VMC

RJFZ_APP

RADIO

07/25 2500x45

民間 civil

9999

070@12KT

30.06

RJDC 252200Z 07012KT 9999 FEW015 BKN025 11/07 Q1018

RJFR / Kitakyushu
VMC

RJFZ_APP

TOWER

18/36 2500x60

民間 civil

9999

090@12KT

30.06

RJFR 252200Z 09012KT 020V130 9999 FEW010 SCT060 BKN160 10/07 Q1018

RJFZ / Tsuiki

RJFZ_APP

TOWER

25/07 2399x46

自衛隊 military

過去5時間に発表されたMETARがありません。

RJOW / Iwami

NO RADAR

REMOTE

11/29 2000x45

民間 civil

過去5時間に発表されたMETARがありません。

RJDT / Tsushima

NO RADAR

REMOTE

32/14 1900x45

民間 civil

過去5時間に発表されたMETARがありません。

RJFF / Fukuoka
VMC

RJFF_APP

TOWER

16/34 2800x60

民間 civil

9999

000@2KT

30.06

RJFF 252200Z VRB02KT 9999 FEW040 BKN050 BKN060 10/06 Q1018 NOSIG

RJFS / Saga
VMC

RJFF_APP

RADIO

29/11 2000x45

民間 civil

9999

280@6KT

30.09

RJFS 252200Z 28006KT 9999 -RA FEW030 BKN060 09/07 Q1019

RJFA / Ashiya

RJFF_APP

TOWER

12/30 1640x46

自衛隊 military

過去5時間に発表されたMETARがありません。

RJDB / Iki

RJFF_APP

REMOTE

20/02 1200x30

民間 civil

過去5時間に発表されたMETARがありません。

RJFO / Oita
VMC

RJFO_APP

TOWER

01/19 3000x45

民間 civil

9999

080@11KT

30.09

RJFO 252200Z 08011KT 9999 FEW015 BKN020 BKN030 11/08 Q1019

RJFU / Nagasaki
VMC

RJFU_APP

TOWER

32/14 3000x60

民間 civil

8000

030@4KT

30.06

RJFU 252200Z 03004KT 8000 -RA FEW020 SCT045 BKN060 09/08 Q1018

RJDU / Omura

RJFU_APP

TOWER

18/36 1200x30

自衛隊 military

過去5時間に発表されたMETARがありません。

RJFE / Fukue

NO RADAR

RADIO

03/21 2000x45

民間 civil

過去5時間に発表されたMETARがありません。

RJDO / Ojika

NO RADAR

REMOTE

03/21 800x30

民間 civil

過去5時間に発表されたMETARがありません。

RJDK / Kamigoto

NO RADAR

REMOTE

17/35 800x30

民間 civil

過去5時間に発表されたMETARがありません。

RJDA / Amakusa

NO RADAR

Flight Service

31/13 1000x30

民間 civil

過去5時間に発表されたMETARがありません。

RJFT / Kumamoto
VMC

RJFT_APP

TOWER

07/25 3000x45

民間 civil

9999

260@4KT

30.06

RJFT 252200Z 26004KT 200V290 9999 -RA FEW020 BKN060 BKN080 10/08 Q1018

RJFN / Nyutabaru

RJFM_APP

TOWER

28/10 2701x46

自衛隊 military

過去5時間に発表されたMETARがありません。

RJFM / Miyazaki
VMC

RJFM_APP

TOWER

27/09 2500x45

民間 civil

9000

270@4KT

30.09

RJFM 252200Z 27004KT 9000 -SHRA FEW010 SCT025 BKN070 12/11 Q1019

RJFK / Kagoshima
VMC

RJFK_APP

TOWER

34/16 3000x45

民間 civil

9000

110@4KT

30.06

RJFK 252200Z 11004KT 070V140 9000 -SHRA FEW009 SCT015 BKN025 12/12 Q1018

RJFY / Kanoya

RJFY_APP

TOWER

26L/08R 2250x45
26R/08L 1200x40

自衛隊 military

過去5時間に発表されたMETARがありません。

RJFG / Tanegashima

NO RADAR

RADIO

31/13 2000x45

民間 civil

過去5時間に発表されたMETARがありません。

RJFC / Yakushima

NO RADAR

REMOTE

14/32 1500x45

民間 civil

過去5時間に発表されたMETARがありません。

RJBG Kobe Control

ROAH / Naha
VMC

ROAH_APP

TOWER

36/18 3000x45

共用 dual

9999

360@2KT

29.97

ROAH 252200Z 36002KT 9999 FEW015 17/16 Q1015

RORA / Aguni

ROAH_APP

REMOTE

01/19 800x25

民間 civil

過去5時間に発表されたMETARがありません。

ROKJ / Kumejima

ROAH_APP

REMOTE

03/21 2000x45

民間 civil

過去5時間に発表されたMETARがありません。

RODN / Kadena
VMC

ROAH_APP

TOWER

05L/23R 3688x91
05R/23L 3688x61

自衛隊 military

9999

080@6KT

29.97

RODN 251856Z AUTO 08006KT 10SM SCT090 16/15 A2997 RMK AO2 SLP156 T01610148 $

ROTM / Futenma
VMC

ROAH_APP

TOWER

06/24 2740x45

自衛隊 military

9000

000@6KT

30.01

ROTM 252130Z VRB06KT 9000 -SHRA BR SCT050 17/13 A3001 RMK SLP148

RORS / Shimojishima
VMC

RORS_APP

TOWER

17/35 3000x60

民間 civil

9999

310@7KT

30.00

RORS 252200Z 31007KT 9999 FEW029 SCT043 19/15 Q1016

ROMY / Miyako
VMC

RORS_APP

TOWER

04/22 2000x45

民間 civil

9999

000@1KT

30.00

ROMY 252200Z VRB01KT 9999 FEW026 16/14 Q1016

ROIG / New Ishigaki
VMC

RORS_APP

TOWER

22/04 2000x45

民間 civil

9999

300@4KT

30.00

ROIG 252200Z 30004KT 9999 FEW030 16/14 Q1016

RORT / Tarama

RORS_APP

REMOTE

36/18 1500x45

民間 civil

過去5時間に発表されたMETARがありません。

RJKA / Amami
VMC

NO RADAR

RADIO

03/21 2000x45

民間 civil

9999

120@11KT

30.00

RJKA 252200Z 12011KT 9999 -SHRA FEW013 SCT025 BKN060 19/16 Q1016

RJKI / Kikai
VMC

NO RADAR

REMOTE

07/25 1200x30

民間 civil

9999

150@7KT

30.00

RJKI 252200Z AUTO 15007KT 110V170 9999 FEW017 OVC060 18/16 Q1016

RJKN / Tokunoshima

NO RADAR

REMOTE

19/01 2000x45

民間 civil

過去5時間に発表されたMETARがありません。

RJKB / Okierabu

NO RADAR

REMOTE

04/22 1350x45

民間 civil

過去5時間に発表されたMETARがありません。

RORY / Yoron
VMC

NO RADAR

REMOTE

32/14 1320x30

民間 civil

9999

000@1KT

29.97

RORY 252200Z AUTO VRB01KT 9999 NSC 17/16 Q1015

RORK / Kitadaito
VMC

NO RADAR

REMOTE

03/21 1500x45

民間 civil

8000

150@10KT

30.00

RORK 252200Z AUTO 15010KT 8000 FEW008 SCT039 BKN042 19/17 Q1016

ROMD / Minami-daito
IMC

NO RADAR

REMOTE

02/20 1500x45

民間 civil

6000

160@7KT

30.00

ROMD 252200Z AUTO 16007KT 120V190 6000 -RA SCT006 BKN009 BKN050 18/18 Q1016

ROYN / Yonaguni
VMC

NO RADAR

REMOTE

26/08 2000x45

民間 civil

9999

160@3KT

30.00

ROYN 252200Z AUTO 16003KT 9999 NCD 15/14 Q1016

RORH / Hateruma

NO RADAR

REMOTE

02/20 800x25

民間 civil

過去5時間に発表されたMETARがありません。

ROKR / Kerama

NO RADAR

REMOTE

02/20 800x25

民間 civil

過去5時間に発表されたMETARがありません。